Time;durP1;ratioP1;P1;durP2;ratioP2;P2;SDS_P1;SDS_P2;PMS_P1;PMS_P2;Temp;Humidity;BMP_temperature;BMP_pressure;BME280_temperature;BME280_humidity;BME280_pressure;Samples;Min_cycle;Max_cycle;Signal;HPM_P1;HPM_P2
2022/10/01 00:00:59;;;;;;;;;;;11.60;99.90;;;;;;5009897;28;19929;-65
2022/10/01 00:03:26;;;;;;;;;;;11.60;99.90;;;;;;5009543;28;19930;-66
2022/10/01 00:06:23;;;;;;;;;;;11.50;99.90;;;;;;5009819;28;19926;-66
2022/10/01 00:08:49;;;;;;;;;;;11.50;99.90;;;;;;5020117;28;20441;-66
2022/10/01 00:11:23;;;;;;;;;;;11.40;99.90;;;;;;5008821;28;19925;-66
2022/10/01 00:13:49;;;;;;;;;;;11.40;99.90;;;;;;5009380;28;19929;-65
2022/10/01 00:16:16;;;;;;;;;;;11.40;99.90;;;;;;5008196;28;20376;-66
2022/10/01 00:18:43;;;;;;;;;;;11.40;99.90;;;;;;5008145;28;19932;-65
2022/10/01 00:21:10;;;;;;;;;;;11.40;99.90;;;;;;5009654;28;19982;-65
2022/10/01 00:23:36;;;;;;;;;;;11.40;99.90;;;;;;5009552;28;19980;-66
2022/10/01 00:26:08;;;;;;;;;;;11.40;99.90;;;;;;5009570;28;20399;-66
2022/10/01 00:28:34;;;;;;;;;;;11.40;99.90;;;;;;5009213;28;19925;-66
2022/10/01 00:30:59;;;;;;;;;;;11.40;99.90;;;;;;5009412;28;20012;-65
2022/10/01 00:33:25;;;;;;;;;;;11.40;99.90;;;;;;5008420;28;19937;-65
2022/10/01 00:35:53;;;;;;;;;;;11.40;99.90;;;;;;5008976;28;19990;-66
2022/10/01 00:38:18;;;;;;;;;;;11.30;99.90;;;;;;5009453;28;20024;-65
2022/10/01 00:40:44;;;;;;;;;;;11.30;99.90;;;;;;5007721;28;20009;-66
2022/10/01 00:43:20;;;;;;;;;;;11.30;99.90;;;;;;5009261;28;19932;-66
2022/10/01 00:45:45;;;;;;;;;;;11.30;99.90;;;;;;5008831;28;20391;-66
2022/10/01 00:48:11;;;;;;;;;;;11.30;99.90;;;;;;5009325;28;19933;-66
2022/10/01 00:50:37;;;;;;;;;;;11.30;99.90;;;;;;5010086;28;19977;-66
2022/10/01 00:53:05;;;;;;;;;;;11.30;99.90;;;;;;5011636;28;19933;-66
2022/10/01 00:55:34;;;;;;;;;;;11.30;99.90;;;;;;5011384;28;20376;-66
2022/10/01 00:58:00;;;;;;;;;;;11.20;99.90;;;;;;5011844;28;20372;-66
2022/10/01 01:00:25;;;;;;;;;;;11.60;99.90;;;;;;5012828;28;19932;-66
2022/10/01 01:02:51;;;;;;;;;;;11.20;99.90;;;;;;5012442;28;19935;-66
2022/10/01 01:05:16;;;;;;;;;;;11.30;99.90;;;;;;5011523;28;19982;-65
2022/10/01 01:07:44;;;;;;;;;;;11.20;99.90;;;;;;5011432;28;19982;-66
2022/10/01 01:10:12;;;;;;;;;;;11.10;99.90;;;;;;5012505;28;20400;-66
2022/10/01 01:12:54;;;;;;;;;;;11.20;99.90;;;;;;5012300;28;19926;-66
2022/10/01 01:15:25;;;;;;;;;;;11.10;99.90;;;;;;5011053;28;19925;-65
2022/10/01 01:18:11;;;;;;;;;;;11.10;99.90;;;;;;5010964;28;19932;-66
2022/10/01 01:20:37;;;;;;;;;;;11.10;99.90;;;;;;5010553;28;19991;-67
2022/10/01 01:23:15;;;;;;;;;;;11.10;99.90;;;;;;5012226;28;20029;-65
2022/10/01 01:25:59;;;;;;;;;;;11.10;99.90;;;;;;5011009;28;19931;-66
2022/10/01 01:28:33;;;;;;;;;;;11.10;99.90;;;;;;5011746;28;19925;-65
2022/10/01 01:31:01;;;;;;;;;;;11.10;99.90;;;;;;5011776;28;20040;-65
2022/10/01 01:33:29;;;;;;;;;;;11.00;99.90;;;;;;5012217;28;19926;-65
2022/10/01 01:36:03;;;;;;;;;;;11.00;99.90;;;;;;5010616;28;19932;-65
2022/10/01 01:38:32;;;;;;;;;;;11.00;99.90;;;;;;5012300;28;19926;-65
2022/10/01 01:40:58;;;;;;;;;;;11.00;99.90;;;;;;5009915;28;20392;-65
2022/10/01 01:43:28;;;;;;;;;;;11.00;99.90;;;;;;5012229;28;19933;-65
2022/10/01 01:45:53;;;;;;;;;;;11.00;99.90;;;;;;5011247;28;19926;-65
2022/10/01 01:48:21;;;;;;;;;;;11.00;99.90;;;;;;5012099;28;19998;-65
2022/10/01 01:50:51;;;;;;;;;;;11.00;99.90;;;;;;5011624;28;19986;-65
2022/10/01 01:53:17;;;;;;;;;;;11.00;99.90;;;;;;5010982;28;19951;-65
2022/10/01 01:55:44;;;;;;;;;;;11.00;99.90;;;;;;5011213;28;19979;-66
2022/10/01 01:58:10;;;;;;;;;;;11.00;99.90;;;;;;5010582;28;19933;-65
2022/10/01 02:00:36;;;;;;;;;;;10.90;99.90;;;;;;5011616;28;19925;-65
2022/10/01 02:03:02;;;;;;;;;;;10.90;99.90;;;;;;5011214;28;19973;-65
2022/10/01 02:05:32;;;;;;;;;;;10.90;99.90;;;;;;5011642;28;19929;-65
2022/10/01 02:08:06;;;;;;;;;;;10.90;99.90;;;;;;5011285;28;19929;-64
2022/10/01 02:10:38;;;;;;;;;;;10.80;99.90;;;;;;4994376;28;19925;-65
2022/10/01 02:13:07;;;;;;;;;;;10.90;99.90;;;;;;5011360;28;20632;-65
2022/10/01 02:15:36;;;;;;;;;;;10.80;99.90;;;;;;5011405;28;19978;-65
2022/10/01 02:18:05;;;;;;;;;;;10.80;99.90;;;;;;5011182;28;19932;-64
2022/10/01 02:21:00;;;;;;;;;;;10.80;99.90;;;;;;5011438;28;20075;-65
2022/10/01 02:23:27;;;;;;;;;;;10.80;99.90;;;;;;5029021;28;20415;-65
2022/10/01 02:25:58;;;;;;;;;;;10.80;99.90;;;;;;5011156;28;19925;-65
2022/10/01 02:28:24;;;;;;;;;;;10.80;99.90;;;;;;5011438;28;20287;-64
2022/10/01 02:30:50;;;;;;;;;;;10.80;99.90;;;;;;5011141;28;19926;-64
2022/10/01 02:33:19;;;;;;;;;;;10.80;99.90;;;;;;5011437;28;19925;-64
2022/10/01 02:35:45;;;;;;;;;;;10.80;99.90;;;;;;5010001;28;19925;-64
2022/10/01 02:38:11;;;;;;;;;;;10.80;99.90;;;;;;5009649;28;19980;-65
2022/10/01 02:40:39;;;;;;;;;;;10.80;99.90;;;;;;5009735;28;20032;-64
2022/10/01 02:43:30;;;;;;;;;;;10.80;99.90;;;;;;5010702;28;19968;-64
2022/10/01 02:45:57;;;;;;;;;;;10.80;99.90;;;;;;5012913;28;19932;-64
2022/10/01 02:48:23;;;;;;;;;;;10.80;99.90;;;;;;5010186;28;19930;-64
2022/10/01 02:50:54;;;;;;;;;;;10.80;99.90;;;;;;5010121;28;19925;-65
2022/10/01 02:53:22;;;;;;;;;;;10.80;99.90;;;;;;5010775;28;19932;-64
2022/10/01 02:55:48;;;;;;;;;;;10.80;99.90;;;;;;5010860;28;19976;-65
2022/10/01 02:58:14;;;;;;;;;;;10.80;99.90;;;;;;5009329;28;19929;-65
2022/10/01 03:00:39;;;;;;;;;;;10.80;99.90;;;;;;5011016;28;20025;-64
2022/10/01 03:03:05;;;;;;;;;;;10.80;99.90;;;;;;5009305;28;20008;-64
2022/10/01 03:05:30;;;;;;;;;;;10.80;99.90;;;;;;5010020;28;19925;-64
2022/10/01 03:07:56;;;;;;;;;;;10.80;99.90;;;;;;5010413;28;20277;-65
2022/10/01 03:10:22;;;;;;;;;;;10.90;99.90;;;;;;5010468;28;19926;-65
2022/10/01 03:12:47;;;;;;;;;;;10.90;99.90;;;;;;5010205;28;20016;-65
2022/10/01 03:15:14;;;;;;;;;;;10.80;99.90;;;;;;5009971;28;19947;-64
2022/10/01 03:17:39;;;;;;;;;;;10.90;99.90;;;;;;5010492;28;19925;-66
2022/10/01 03:20:06;;;;;;;;;;;10.90;99.90;;;;;;5010106;28;19994;-65
2022/10/01 03:22:32;;;;;;;;;;;10.90;99.90;;;;;;5009421;28;19934;-65
2022/10/01 03:24:58;;;;;;;;;;;10.90;99.90;;;;;;5009234;28;19936;-65
2022/10/01 03:27:23;;;;;;;;;;;10.90;99.90;;;;;;5010676;28;19925;-65
2022/10/01 03:29:49;;;;;;;;;;;10.90;99.90;;;;;;5010463;28;19925;-66
2022/10/01 03:32:15;;;;;;;;;;;10.90;99.90;;;;;;5010137;28;19926;-65
2022/10/01 03:34:40;;;;;;;;;;;11.00;99.90;;;;;;5009117;28;19949;-66
2022/10/01 03:37:06;;;;;;;;;;;11.00;99.90;;;;;;5010343;28;19932;-65
2022/10/01 03:39:32;;;;;;;;;;;11.00;99.90;;;;;;5010514;28;19925;-66
2022/10/01 03:41:57;;;;;;;;;;;11.00;99.90;;;;;;4992584;28;19930;-67
2022/10/01 03:44:23;;;;;;;;;;;11.00;99.90;;;;;;5010114;28;20417;-65
2022/10/01 03:46:48;;;;;;;;;;;11.00;99.90;;;;;;5010259;28;19926;-66
2022/10/01 03:49:14;;;;;;;;;;;11.00;99.90;;;;;;5009848;28;20296;-65
2022/10/01 03:51:40;;;;;;;;;;;11.10;99.90;;;;;;5010027;28;19932;-65
2022/10/01 03:54:06;;;;;;;;;;;11.10;99.90;;;;;;5009593;28;19925;-65
2022/10/01 03:56:32;;;;;;;;;;;11.10;99.90;;;;;;5010060;28;20036;-65
2022/10/01 03:58:58;;;;;;;;;;;11.10;99.90;;;;;;5010145;28;20338;-65
2022/10/01 04:01:24;;;;;;;;;;;11.10;99.90;;;;;;5009526;28;19925;-65
2022/10/01 04:03:50;;;;;;;;;;;11.10;99.90;;;;;;5010052;28;19933;-66
2022/10/01 04:06:16;;;;;;;;;;;11.10;99.90;;;;;;5009453;28;19926;-65
2022/10/01 04:08:42;;;;;;;;;;;11.10;99.90;;;;;;5009477;28;19971;-70
2022/10/01 04:11:07;;;;;;;;;;;11.20;99.90;;;;;;5008215;28;19929;-69
2022/10/01 04:13:33;;;;;;;;;;;11.20;99.90;;;;;;5009743;28;20289;-69
2022/10/01 04:15:59;;;;;;;;;;;11.20;99.90;;;;;;5008590;28;20016;-70
2022/10/01 04:18:25;;;;;;;;;;;11.20;99.90;;;;;;4991743;28;19973;-69
2022/10/01 04:20:51;;;;;;;;;;;11.20;99.90;;;;;;5009624;28;19987;-70
2022/10/01 04:23:16;;;;;;;;;;;11.20;99.90;;;;;;5007913;28;20364;-69
2022/10/01 04:25:42;;;;;;;;;;;11.10;99.90;;;;;;5008442;28;19926;-69
2022/10/01 04:28:09;;;;;;;;;;;11.20;99.90;;;;;;5009322;28;19930;-70
2022/10/01 04:30:36;;;;;;;;;;;11.20;99.90;;;;;;4991980;28;20383;-70
2022/10/01 04:33:02;;;;;;;;;;;11.20;99.90;;;;;;5008327;28;19933;-69
2022/10/01 04:35:27;;;;;;;;;;;11.20;99.90;;;;;;5008012;28;20248;-69
2022/10/01 04:38:02;;;;;;;;;;;11.20;99.90;;;;;;5009213;28;19926;-68
2022/10/01 04:40:28;;;;;;;;;;;11.20;99.90;;;;;;5007789;28;19926;-68
2022/10/01 04:42:54;;;;;;;;;;;11.20;99.90;;;;;;4992078;28;19932;-69
2022/10/01 04:45:20;;;;;;;;;;;11.20;99.90;;;;;;5007736;28;19926;-69
2022/10/01 04:47:47;;;;;;;;;;;11.20;99.90;;;;;;5008050;28;19933;-69
2022/10/01 04:50:13;;;;;;;;;;;11.20;99.90;;;;;;5007896;28;20290;-69
2022/10/01 04:52:39;;;;;;;;;;;11.20;99.90;;;;;;5009131;28;19933;-69
2022/10/01 04:55:04;;;;;;;;;;;11.30;99.90;;;;;;5007881;28;19925;-68
2022/10/01 04:57:30;;;;;;;;;;;11.30;99.90;;;;;;5007587;28;19922;-69
2022/10/01 04:59:55;;;;;;;;;;;11.30;99.90;;;;;;5008099;28;19966;-68
2022/10/01 05:02:21;;;;;;;;;;;11.30;99.90;;;;;;5008608;28;19926;-69
2022/10/01 05:04:47;;;;;;;;;;;11.30;99.90;;;;;;5008842;28;19926;-69
2022/10/01 05:07:13;;;;;;;;;;;11.30;99.90;;;;;;4991327;28;19925;-72
2022/10/01 05:09:38;;;;;;;;;;;11.30;99.90;;;;;;5007716;28;19926;-69
2022/10/01 05:12:05;;;;;;;;;;;11.30;99.90;;;;;;5007793;28;19932;-69
2022/10/01 05:14:30;;;;;;;;;;;11.40;99.90;;;;;;5007278;28;19925;-69
2022/10/01 05:16:56;;;;;;;;;;;11.40;99.90;;;;;;4975514;28;20395;-68
2022/10/01 05:19:22;;;;;;;;;;;11.30;99.90;;;;;;5007580;28;19970;-70
2022/10/01 05:21:48;;;;;;;;;;;11.30;99.90;;;;;;5007642;28;20306;-71
2022/10/01 05:24:14;;;;;;;;;;;11.30;99.90;;;;;;4991429;28;19925;-73
2022/10/01 05:26:40;;;;;;;;;;;11.40;99.90;;;;;;4991701;28;20044;-70
2022/10/01 05:29:06;;;;;;;;;;;11.40;99.90;;;;;;5007940;28;20379;-70
2022/10/01 05:31:31;;;;;;;;;;;11.40;99.90;;;;;;5008373;28;20279;-71
2022/10/01 05:33:57;;;;;;;;;;;11.40;99.90;;;;;;5007829;28;19926;-72
2022/10/01 05:36:22;;;;;;;;;;;11.40;99.90;;;;;;4991236;28;19929;-71
2022/10/01 05:38:48;;;;;;;;;;;11.40;99.90;;;;;;5012230;28;20028;-71
2022/10/01 05:41:15;;;;;;;;;;;11.40;99.90;;;;;;4994264;28;19955;-71
2022/10/01 05:43:40;;;;;;;;;;;11.40;99.90;;;;;;5010736;28;19925;-70
2022/10/01 05:46:06;;;;;;;;;;;11.40;99.90;;;;;;5010956;28;19926;-70
2022/10/01 05:48:35;;;;;;;;;;;11.40;99.90;;;;;;5010216;28;20058;-71
2022/10/01 05:51:06;;;;;;;;;;;11.40;99.90;;;;;;5010769;28;20348;-70
2022/10/01 05:53:37;;;;;;;;;;;11.50;99.90;;;;;;5011453;28;19932;-70
2022/10/01 05:56:06;;;;;;;;;;;11.50;99.90;;;;;;5010741;28;20013;-70
2022/10/01 05:58:32;;;;;;;;;;;11.50;99.90;;;;;;5011276;28;19949;-71
2022/10/01 06:00:58;;;;;;;;;;;11.50;99.90;;;;;;5011811;28;19929;-70
2022/10/01 06:03:25;;;;;;;;;;;11.50;99.90;;;;;;5011377;28;20383;-70
2022/10/01 06:05:52;;;;;;;;;;;11.60;99.90;;;;;;5010753;28;19926;-71
2022/10/01 06:08:18;;;;;;;;;;;11.60;99.90;;;;;;5010695;28;19929;-70
2022/10/01 06:10:43;;;;;;;;;;;11.60;99.90;;;;;;5010238;28;19995;-71
2022/10/01 06:13:10;;;;;;;;;;;11.60;99.90;;;;;;5011581;28;20376;-71
2022/10/01 06:15:37;;;;;;;;;;;11.60;99.90;;;;;;5009968;28;19925;-71
2022/10/01 06:18:06;;;;;;;;;;;11.70;99.90;;;;;;5010474;28;19931;-70
2022/10/01 06:20:32;;;;;;;;;;;11.70;99.90;;;;;;4993206;28;20457;-71
2022/10/01 06:22:58;;;;;;;;;;;11.70;99.90;;;;;;5011238;28;19937;-70
2022/10/01 06:25:24;;;;;;;;;;;11.80;99.90;;;;;;5009618;28;19933;-75
2022/10/01 06:27:50;;;;;;;;;;;11.80;99.90;;;;;;4993825;28;19926;-71
2022/10/01 06:30:16;;;;;;;;;;;11.90;99.90;;;;;;5010300;28;19933;-70
2022/10/01 06:32:41;;;;;;;;;;;11.90;99.90;;;;;;5010582;28;19925;-70
2022/10/01 06:35:07;;;;;;;;;;;11.90;99.90;;;;;;5009947;28;19929;-70
2022/10/01 06:37:35;;;;;;;;;;;11.90;99.90;;;;;;5009470;28;20276;-69
2022/10/01 06:40:01;;;;;;;;;;;11.90;99.90;;;;;;5010122;28;19932;-72
2022/10/01 06:42:26;;;;;;;;;;;11.80;99.90;;;;;;4992319;28;19925;-71
2022/10/01 06:44:52;;;;;;;;;;;11.90;99.90;;;;;;5009898;28;19925;-71
2022/10/01 06:47:18;;;;;;;;;;;11.90;99.90;;;;;;4993710;28;20372;-68
2022/10/01 06:49:43;;;;;;;;;;;11.90;99.90;;;;;;5009907;28;20024;-70
2022/10/01 06:54:54;;;;;;;;;;;12.00;99.90;;;;;;5010791;28;20372;-71
2022/10/01 06:57:19;;;;;;;;;;;12.00;99.90;;;;;;5011137;28;20014;-71
2022/10/01 06:59:45;;;;;;;;;;;12.20;99.90;;;;;;5009538;28;19977;-76
2022/10/01 07:02:19;;;;;;;;;;;12.20;99.90;;;;;;4977469;28;19993;-75
2022/10/01 07:04:46;;;;;;;;;;;12.40;99.90;;;;;;5010882;28;19925;-72
2022/10/01 07:07:12;;;;;;;;;;;12.50;99.90;;;;;;5010264;28;19932;-72
2022/10/01 07:09:37;;;;;;;;;;;12.60;99.90;;;;;;5009482;28;20264;-71
2022/10/01 07:12:04;;;;;;;;;;;12.80;99.90;;;;;;5009321;28;19948;-71
2022/10/01 07:14:29;;;;;;;;;;;12.90;99.90;;;;;;5009620;28;19975;-71
2022/10/01 07:16:55;;;;;;;;;;;13.00;99.90;;;;;;5011060;28;20318;-74
2022/10/01 07:19:20;;;;;;;;;;;13.10;99.90;;;;;;5009879;28;19978;-73
2022/10/01 07:21:49;;;;;;;;;;;13.20;99.90;;;;;;5010687;28;20021;-75
2022/10/01 07:24:14;;;;;;;;;;;13.30;99.90;;;;;;5009911;28;19971;-75
2022/10/01 07:26:40;;;;;;;;;;;13.30;99.90;;;;;;5009547;28;19926;-74
2022/10/01 07:29:05;;;;;;;;;;;13.30;99.90;;;;;;5011196;28;19926;-75
2022/10/01 07:31:31;;;;;;;;;;;13.20;99.90;;;;;;5011718;28;20372;-75
2022/10/01 07:33:57;;;;;;;;;;;13.40;99.90;;;;;;5010210;28;19925;-78
2022/10/01 07:36:23;;;;;;;;;;;13.80;99.90;;;;;;5009345;28;19932;-72
2022/10/01 07:38:50;;;;;;;;;;;13.80;99.90;;;;;;4993565;28;19970;-74
2022/10/01 07:41:16;;;;;;;;;;;13.70;99.90;;;;;;5008791;28;19926;-73
2022/10/01 07:43:42;;;;;;;;;;;13.70;99.90;;;;;;5008820;28;19932;-75
2022/10/01 07:46:08;;;;;;;;;;;13.60;99.90;;;;;;4993065;28;19930;-76
2022/10/01 07:48:34;;;;;;;;;;;14.10;99.90;;;;;;5009461;28;19978;-74
2022/10/01 07:51:00;;;;;;;;;;;15.30;99.90;;;;;;5010099;28;20440;-74
2022/10/01 07:53:26;;;;;;;;;;;16.30;99.90;;;;;;5009118;28;20310;-74
2022/10/01 07:55:52;;;;;;;;;;;;;;;;;;5009869;28;20279;-74
2022/10/01 07:58:22;;;;;;;;;;;;;;;;;;4993663;28;19929;-74
2022/10/01 08:00:48;;;;;;;;;;;17.50;99.90;;;;;;5009790;28;19982;-73
2022/10/01 08:03:14;;;;;;;;;;;;;;;;;;5008823;28;20368;-74
2022/10/01 08:05:41;;;;;;;;;;;20.60;99.90;;;;;;5010442;28;20070;-77
2022/10/01 08:08:07;;;;;;;;;;;21.90;99.90;;;;;;4992772;28;19933;-74
2022/10/01 08:10:36;;;;;;;;;;;22.30;99.90;;;;;;5009864;28;19925;-73
2022/10/01 08:13:07;;;;;;;;;;;22.70;99.90;;;;;;5009502;28;19933;-72
2022/10/01 08:15:33;;;;;;;;;;;23.00;99.90;;;;;;5010280;28;19981;-74
2022/10/01 08:17:59;;;;;;;;;;;;;;;;;;5008463;28;19926;-74
2022/10/01 08:20:25;;;;;;;;;;;23.40;99.90;;;;;;5008799;28;19925;-73
2022/10/01 08:22:50;;;;;;;;;;;23.80;99.90;;;;;;5008249;28;19925;-74
2022/10/01 08:25:16;;;;;;;;;;;24.00;99.90;;;;;;4992653;28;19929;-75
2022/10/01 08:27:42;;;;;;;;;;;24.00;99.90;;;;;;5009384;28;19926;-75
2022/10/01 08:30:07;;;;;;;;;;;24.30;99.90;;;;;;4992570;28;20020;-73
2022/10/01 08:32:33;;;;;;;;;;;24.50;99.90;;;;;;5008902;28;19925;-71
2022/10/01 08:35:00;;;;;;;;;;;24.60;99.90;;;;;;5007951;28;20390;-71
2022/10/01 08:37:26;;;;;;;;;;;24.60;99.90;;;;;;5009487;28;19930;-71
2022/10/01 08:39:53;;;;;;;;;;;24.50;99.90;;;;;;5008296;28;20330;-71
2022/10/01 08:42:25;;;;;;;;;;;24.60;99.90;;;;;;5008964;28;20300;-72
2022/10/01 08:44:51;;;;;;;;;;;24.80;99.90;;;;;;5009158;28;19925;-73
2022/10/01 08:47:29;;;;;;;;;;;24.90;99.90;;;;;;5009360;28;20396;-71
2022/10/01 08:49:59;;;;;;;;;;;25.00;99.90;;;;;;5008154;28;19926;-72
2022/10/01 08:52:32;;;;;;;;;;;25.20;99.50;;;;;;5009531;28;19926;-71
2022/10/01 08:55:03;;;;;;;;;;;25.50;99.60;;;;;;5007312;28;19930;-72
2022/10/01 08:57:30;;;;;;;;;;;25.50;98.30;;;;;;5008990;28;19968;-70
2022/10/01 08:59:57;;;;;;;;;;;25.10;98.20;;;;;;5008853;28;20372;-71
2022/10/01 09:02:24;;;;;;;;;;;24.10;99.60;;;;;;5008445;28;19965;-72
2022/10/01 09:04:57;;;;;;;;;;;23.40;99.90;;;;;;5008819;28;19925;-72
2022/10/01 09:07:35;;;;;;;;;;;22.50;99.90;;;;;;5008380;28;19956;-69
2022/10/01 09:10:01;;;;;;;;;;;21.50;99.90;;;;;;5007918;28;20020;-70
2022/10/01 09:12:47;;;;;;;;;;;21.00;99.90;;;;;;5010509;28;19973;-71
2022/10/01 09:15:22;;;;;;;;;;;20.60;99.90;;;;;;5010797;28;19985;-70
2022/10/01 09:18:02;;;;;;;;;;;20.30;99.90;;;;;;5012476;28;19998;-70
2022/10/01 09:20:33;;;;;;;;;;;20.00;99.90;;;;;;5011635;28;19986;-75
2022/10/01 09:23:18;;;;;;;;;;;19.80;99.90;;;;;;5010934;28;19947;-68
2022/10/01 09:25:45;;;;;;;;;;;19.60;99.90;;;;;;5012333;28;19929;-68
2022/10/01 09:28:15;;;;;;;;;;;19.60;99.90;;;;;;5012113;28;20017;-70
2022/10/01 09:30:48;;;;;;;;;;;19.60;99.90;;;;;;5012433;28;20015;-70
2022/10/01 09:33:19;;;;;;;;;;;19.50;99.90;;;;;;5010754;28;20028;-70
2022/10/01 09:35:49;;;;;;;;;;;19.40;99.90;;;;;;5012426;28;19925;-67
2022/10/01 09:38:22;;;;;;;;;;;19.20;99.90;;;;;;4994339;28;20343;-69
2022/10/01 09:40:57;;;;;;;;;;;19.10;99.90;;;;;;5012092;28;19926;-68
2022/10/01 09:43:25;;;;;;;;;;;19.10;99.90;;;;;;5012307;28;20311;-68
2022/10/01 09:45:51;;;;;;;;;;;19.00;99.90;;;;;;5012191;28;19926;-70
2022/10/01 09:48:21;;;;;;;;;;;18.90;99.90;;;;;;5010778;28;20288;-71
2022/10/01 09:50:57;;;;;;;;;;;18.90;99.90;;;;;;5011949;28;19971;-74
2022/10/01 09:53:35;;;;;;;;;;;19.00;99.90;;;;;;4994985;28;19929;-74
2022/10/01 09:56:08;;;;;;;;;;;19.00;99.90;;;;;;5012179;28;19926;-71
2022/10/01 09:58:35;;;;;;;;;;;18.80;99.90;;;;;;5011225;28;19925;-73
2022/10/01 10:01:01;;;;;;;;;;;18.50;99.90;;;;;;5011728;28;20036;-72
2022/10/01 10:03:29;;;;;;;;;;;18.20;99.90;;;;;;5010785;28;20372;-69
2022/10/01 10:05:56;;;;;;;;;;;17.90;99.90;;;;;;5011041;28;19932;-73
2022/10/01 10:08:29;;;;;;;;;;;17.50;99.90;;;;;;5011676;28;19929;-72
2022/10/01 10:11:01;;;;;;;;;;;17.20;99.90;;;;;;5011952;28;20016;-69
2022/10/01 10:13:34;;;;;;;;;;;17.00;99.90;;;;;;5011822;28;19925;-68
2022/10/01 10:16:19;;;;;;;;;;;16.80;99.90;;;;;;5010388;28;19925;-76
2022/10/01 10:18:47;;;;;;;;;;;16.70;99.90;;;;;;4994381;28;20013;-70
2022/10/01 10:21:18;;;;;;;;;;;16.60;99.90;;;;;;5011116;28;19925;-69
2022/10/01 10:23:48;;;;;;;;;;;16.50;99.90;;;;;;5011293;28;20020;-72
2022/10/01 10:26:19;;;;;;;;;;;16.30;99.90;;;;;;5011263;28;19926;-70
2022/10/01 10:28:45;;;;;;;;;;;16.00;99.90;;;;;;5011559;28;19932;-70
2022/10/01 10:31:34;;;;;;;;;;;15.80;99.90;;;;;;5011301;28;20280;-69
2022/10/01 10:34:17;;;;;;;;;;;15.60;99.90;;;;;;5010416;28;20004;-72
2022/10/01 10:36:44;;;;;;;;;;;15.40;99.90;;;;;;5010244;28;19925;-71
2022/10/01 10:39:22;;;;;;;;;;;15.30;99.90;;;;;;5010316;28;19933;-71
2022/10/01 10:41:49;;;;;;;;;;;15.20;99.90;;;;;;5011472;28;20017;-69
2022/10/01 10:44:20;;;;;;;;;;;15.20;99.90;;;;;;5009799;28;19925;-68
2022/10/01 10:46:46;;;;;;;;;;;15.00;99.90;;;;;;5011431;28;19926;-70
2022/10/01 10:49:14;;;;;;;;;;;15.00;99.90;;;;;;5010922;28;19929;-68
2022/10/01 10:51:43;;;;;;;;;;;14.90;99.90;;;;;;5009999;28;20432;-70
2022/10/01 10:54:16;;;;;;;;;;;14.90;99.90;;;;;;5009510;28;20342;-72
2022/10/01 10:56:49;;;;;;;;;;;14.90;99.90;;;;;;5009767;28;19933;-70
2022/10/01 10:59:16;;;;;;;;;;;14.80;99.90;;;;;;5010000;28;20265;-68
2022/10/01 11:01:42;;;;;;;;;;;14.90;99.90;;;;;;5011096;28;19926;-70
2022/10/01 11:04:17;;;;;;;;;;;15.00;99.90;;;;;;4977241;28;19930;-70
2022/10/01 11:06:52;;;;;;;;;;;15.10;99.90;;;;;;4993304;28;19925;-69
2022/10/01 11:09:17;;;;;;;;;;;15.30;99.90;;;;;;4993030;28;19975;-67
2022/10/01 11:11:53;;;;;;;;;;;15.30;99.90;;;;;;4993386;28;19925;-69
2022/10/01 11:14:22;;;;;;;;;;;15.30;99.90;;;;;;5008882;28;20383;-68
2022/10/01 11:16:51;;;;;;;;;;;15.40;99.90;;;;;;5009232;28;20028;-71
2022/10/01 11:19:25;;;;;;;;;;;15.40;99.90;;;;;;5010252;28;19929;-67
2022/10/01 11:21:56;;;;;;;;;;;15.50;99.90;;;;;;5009683;28;19933;-72
2022/10/01 11:24:41;;;;;;;;;;;15.50;99.90;;;;;;5010507;28;19930;-67
2022/10/01 11:27:12;;;;;;;;;;;15.60;99.90;;;;;;4993004;28;19932;-70
2022/10/01 11:29:51;;;;;;;;;;;15.70;99.90;;;;;;5010141;28;19937;-69
2022/10/01 11:32:36;;;;;;;;;;;15.70;99.90;;;;;;4992515;28;19932;-67
2022/10/01 11:35:21;;;;;;;;;;;15.80;99.90;;;;;;5008711;28;19925;-66
2022/10/01 11:37:57;;;;;;;;;;;15.90;99.90;;;;;;5010327;28;19978;-69
2022/10/01 11:40:32;;;;;;;;;;;16.00;99.90;;;;;;5008456;28;19929;-66
2022/10/01 11:43:02;;;;;;;;;;;16.10;99.90;;;;;;5010570;28;20418;-68
2022/10/01 11:45:30;;;;;;;;;;;16.10;99.90;;;;;;5009846;28;19983;-68
2022/10/01 11:47:59;;;;;;;;;;;16.10;99.90;;;;;;5009894;28;20233;-68
2022/10/01 11:50:34;;;;;;;;;;;16.10;99.90;;;;;;5009429;28;19925;-70
2022/10/01 11:53:08;;;;;;;;;;;16.10;99.90;;;;;;5010559;28;19933;-69
2022/10/01 12:01:17;;;;;;;;;;;16.50;99.90;;;;;;5010158;28;19933;-63
2022/10/01 12:04:03;;;;;;;;;;;16.50;99.90;;;;;;5008594;28;19932;-62
2022/10/01 12:06:34;;;;;;;;;;;16.60;99.90;;;;;;5009522;28;20390;-62
2022/10/01 12:09:18;;;;;;;;;;;16.70;99.90;;;;;;5008166;28;19926;-62
2022/10/01 12:11:56;;;;;;;;;;;16.70;99.90;;;;;;5009589;28;19933;-63
2022/10/01 12:14:26;;;;;;;;;;;16.80;99.90;;;;;;5009444;28;20015;-66
2022/10/01 12:16:57;;;;;;;;;;;16.80;99.90;;;;;;5009721;28;19926;-61
2022/10/01 12:19:25;;;;;;;;;;;16.90;99.90;;;;;;5008128;28;20383;-66
2022/10/01 12:21:51;;;;;;;;;;;16.90;99.90;;;;;;5009955;28;19926;-60
2022/10/01 12:24:23;;;;;;;;;;;16.90;99.90;;;;;;5008809;28;20423;-60
2022/10/01 12:26:55;;;;;;;;;;;16.90;99.90;;;;;;5008760;28;19925;-60
2022/10/01 12:29:29;;;;;;;;;;;16.90;99.90;;;;;;4992511;28;19933;-61
2022/10/01 12:32:18;;;;;;;;;;;17.00;99.90;;;;;;5007140;28;20267;-63
2022/10/01 12:34:46;;;;;;;;;;;17.00;99.90;;;;;;5006516;28;20153;-63
2022/10/01 12:37:20;;;;;;;;;;;17.00;99.90;;;;;;5009301;28;20391;-61
2022/10/01 12:39:48;;;;;;;;;;;17.00;99.90;;;;;;5008589;28;19929;-64
2022/10/01 12:42:23;;;;;;;;;;;17.00;99.90;;;;;;5009105;28;19929;-62
2022/10/01 12:44:48;;;;;;;;;;;17.10;99.90;;;;;;5009161;28;19921;-62
2022/10/01 12:47:27;;;;;;;;;;;17.00;99.90;;;;;;5011304;28;20372;-63
2022/10/01 12:49:52;;;;;;;;;;;16.90;99.90;;;;;;5012923;28;20012;-63
2022/10/01 12:52:47;;;;;;;;;;;16.90;99.90;;;;;;5013063;28;20012;-63
2022/10/01 12:55:22;;;;;;;;;;;17.00;99.90;;;;;;5015858;28;19921;-66
2022/10/01 12:57:51;;;;;;;;;;;16.90;99.90;;;;;;5011387;28;19928;-66
2022/10/01 13:00:24;;;;;;;;;;;16.90;99.90;;;;;;5011829;28;19975;-65
2022/10/01 13:02:58;;;;;;;;;;;16.80;99.90;;;;;;5012660;28;19922;-66
2022/10/01 13:05:42;;;;;;;;;;;16.80;99.90;;;;;;5012248;28;19922;-65
2022/10/01 13:08:26;;;;;;;;;;;16.70;99.90;;;;;;5011864;28;20300;-65
2022/10/01 13:11:02;;;;;;;;;;;16.50;99.90;;;;;;4995343;28;20356;-63
2022/10/01 13:13:32;;;;;;;;;;;16.40;99.90;;;;;;5012596;28;19932;-68
2022/10/01 13:16:09;;;;;;;;;;;16.40;99.90;;;;;;5012571;28;19936;-61
2022/10/01 13:18:38;;;;;;;;;;;16.30;99.90;;;;;;5012586;28;19968;-62
2022/10/01 13:21:16;;;;;;;;;;;16.30;99.90;;;;;;5012799;28;20286;-63
2022/10/01 13:24:01;;;;;;;;;;;16.10;99.90;;;;;;5012228;28;19928;-64
2022/10/01 13:26:30;;;;;;;;;;;16.00;99.90;;;;;;5012715;28;19922;-63
2022/10/01 13:28:55;;;;;;;;;;;15.90;99.90;;;;;;5012489;28;19921;-65
2022/10/01 13:31:31;;;;;;;;;;;15.90;99.90;;;;;;5012432;28;19921;-64
2022/10/01 13:33:56;;;;;;;;;;;15.70;99.90;;;;;;5011074;28;20303;-67
2022/10/01 13:36:30;;;;;;;;;;;15.50;99.90;;;;;;5012500;28;19921;-65
2022/10/01 13:38:55;;;;;;;;;;;15.20;99.90;;;;;;5012223;28;19968;-64
2022/10/01 13:41:26;;;;;;;;;;;15.00;99.90;;;;;;5011184;28;20360;-63
2022/10/01 13:44:01;;;;;;;;;;;14.90;99.90;;;;;;5011085;28;19951;-63
2022/10/01 13:46:29;;;;;;;;;;;14.90;99.90;;;;;;5012473;28;19921;-63
2022/10/01 13:48:57;;;;;;;;;;;14.80;99.90;;;;;;5012102;28;19928;-64
2022/10/01 13:51:32;;;;;;;;;;;14.80;99.90;;;;;;5011159;28;19926;-62
2022/10/01 13:53:59;;;;;;;;;;;14.80;99.90;;;;;;5011917;28;19948;-63
2022/10/01 13:56:31;;;;;;;;;;;14.80;99.90;;;;;;5011027;28;20317;-64
2022/10/01 13:58:57;;;;;;;;;;;14.80;99.90;;;;;;5009892;28;19922;-62
2022/10/01 14:01:22;;;;;;;;;;;14.80;99.90;;;;;;5011822;28;20391;-62
2022/10/01 14:03:48;;;;;;;;;;;14.70;99.90;;;;;;5011453;28;19942;-64
2022/10/01 14:06:16;;;;;;;;;;;14.70;99.90;;;;;;5012025;28;19921;-63
2022/10/01 14:08:46;;;;;;;;;;;14.60;99.90;;;;;;5011651;28;19925;-64
2022/10/01 14:16:52;;;;;;;;;;;14.60;99.90;;;;;;5011215;28;19917;-62
2022/10/01 14:19:19;;;;;;;;;;;14.70;99.90;;;;;;5011349;28;20021;-62
2022/10/01 14:21:59;;;;;;;;;;;14.70;99.90;;;;;;5011363;28;19928;-62
2022/10/01 14:24:43;;;;;;;;;;;14.80;99.90;;;;;;5011678;28;20020;-63
2022/10/01 14:27:08;;;;;;;;;;;14.80;99.90;;;;;;5010751;28;19922;-63
2022/10/01 14:29:50;;;;;;;;;;;14.80;99.90;;;;;;5010725;28;19921;-63
2022/10/01 14:32:33;;;;;;;;;;;14.90;99.90;;;;;;5010534;28;19974;-64
2022/10/01 14:35:05;;;;;;;;;;;14.90;99.90;;;;;;5010191;28;19968;-63
2022/10/01 14:37:36;;;;;;;;;;;14.90;99.90;;;;;;5011509;28;20372;-64
2022/10/01 14:40:13;;;;;;;;;;;15.00;99.90;;;;;;5010447;28;19921;-63
2022/10/01 14:42:39;;;;;;;;;;;15.00;99.90;;;;;;5009968;28;19922;-62
2022/10/01 14:45:15;;;;;;;;;;;15.00;99.90;;;;;;5010137;28;19922;-64